sensor_id;sensor_type;location;lat;lon;timestamp;P1;durP1;ratioP1;P2;durP2;ratioP2
5890;SDS011;2971;52.420;7.080;2023-04-03T00:01:00;9.20;;;2.80;;
5890;SDS011;2971;52.420;7.080;2023-04-03T00:03:26;6.50;;;2.63;;
5890;SDS011;2971;52.420;7.080;2023-04-03T00:05:51;4.63;;;2.20;;
5890;SDS011;2971;52.420;7.080;2023-04-03T00:08:17;4.47;;;2.10;;
5890;SDS011;2971;52.420;7.080;2023-04-03T00:10:43;6.50;;;2.43;;
5890;SDS011;2971;52.420;7.080;2023-04-03T00:13:08;4.47;;;2.57;;
5890;SDS011;2971;52.420;7.080;2023-04-03T00:15:35;5.03;;;2.40;;
5890;SDS011;2971;52.420;7.080;2023-04-03T00:18:01;6.27;;;2.50;;
5890;SDS011;2971;52.420;7.080;2023-04-03T00:20:26;7.67;;;2.83;;
5890;SDS011;2971;52.420;7.080;2023-04-03T00:22:52;4.97;;;2.27;;
5890;SDS011;2971;52.420;7.080;2023-04-03T00:25:18;5.13;;;3.07;;
5890;SDS011;2971;52.420;7.080;2023-04-03T00:27:43;6.37;;;2.50;;
5890;SDS011;2971;52.420;7.080;2023-04-03T00:30:09;4.23;;;2.33;;
5890;SDS011;2971;52.420;7.080;2023-04-03T00:32:36;6.43;;;2.20;;
5890;SDS011;2971;52.420;7.080;2023-04-03T00:35:02;7.47;;;2.43;;
5890;SDS011;2971;52.420;7.080;2023-04-03T00:37:27;5.37;;;2.13;;
5890;SDS011;2971;52.420;7.080;2023-04-03T00:39:53;5.50;;;2.40;;
5890;SDS011;2971;52.420;7.080;2023-04-03T00:42:18;8.37;;;3.00;;
5890;SDS011;2971;52.420;7.080;2023-04-03T00:47:13;5.37;;;2.23;;
5890;SDS011;2971;52.420;7.080;2023-04-03T00:49:41;6.70;;;2.57;;
5890;SDS011;2971;52.420;7.080;2023-04-03T00:52:08;8.27;;;2.87;;
5890;SDS011;2971;52.420;7.080;2023-04-03T00:54:37;5.60;;;2.37;;
5890;SDS011;2971;52.420;7.080;2023-04-03T00:57:02;7.83;;;2.60;;
5890;SDS011;2971;52.420;7.080;2023-04-03T00:59:30;5.90;;;2.50;;
5890;SDS011;2971;52.420;7.080;2023-04-03T01:01:57;6.43;;;2.47;;
5890;SDS011;2971;52.420;7.080;2023-04-03T01:06:57;5.77;;;2.53;;
5890;SDS011;2971;52.420;7.080;2023-04-03T01:09:26;5.63;;;2.50;;
5890;SDS011;2971;52.420;7.080;2023-04-03T01:11:51;5.93;;;2.40;;
5890;SDS011;2971;52.420;7.080;2023-04-03T01:14:17;7.40;;;2.83;;
5890;SDS011;2971;52.420;7.080;2023-04-03T01:16:42;6.23;;;2.90;;
5890;SDS011;2971;52.420;7.080;2023-04-03T01:19:08;5.17;;;2.70;;
5890;SDS011;2971;52.420;7.080;2023-04-03T01:26:51;6.47;;;2.80;;
5890;SDS011;2971;52.420;7.080;2023-04-03T01:29:16;6.53;;;2.63;;
5890;SDS011;2971;52.420;7.080;2023-04-03T01:32:01;7.37;;;2.53;;
5890;SDS011;2971;52.420;7.080;2023-04-03T01:34:28;6.10;;;2.50;;
5890;SDS011;2971;52.420;7.080;2023-04-03T01:36:54;7.63;;;3.00;;
5890;SDS011;2971;52.420;7.080;2023-04-03T01:39:19;6.70;;;2.60;;
5890;SDS011;2971;52.420;7.080;2023-04-03T01:41:45;7.77;;;3.23;;
5890;SDS011;2971;52.420;7.080;2023-04-03T01:44:11;10.47;;;2.90;;
5890;SDS011;2971;52.420;7.080;2023-04-03T01:46:37;6.37;;;2.53;;
5890;SDS011;2971;52.420;7.080;2023-04-03T01:49:03;7.83;;;2.57;;
5890;SDS011;2971;52.420;7.080;2023-04-03T01:51:29;5.57;;;2.50;;
5890;SDS011;2971;52.420;7.080;2023-04-03T01:53:55;5.73;;;3.13;;
5890;SDS011;2971;52.420;7.080;2023-04-03T01:56:20;8.33;;;2.80;;
5890;SDS011;2971;52.420;7.080;2023-04-03T01:58:46;6.60;;;2.53;;
5890;SDS011;2971;52.420;7.080;2023-04-03T02:01:11;5.60;;;2.90;;
5890;SDS011;2971;52.420;7.080;2023-04-03T02:03:36;5.40;;;2.60;;
5890;SDS011;2971;52.420;7.080;2023-04-03T02:06:02;7.13;;;2.90;;
5890;SDS011;2971;52.420;7.080;2023-04-03T02:08:27;6.03;;;2.50;;
5890;SDS011;2971;52.420;7.080;2023-04-03T02:10:53;5.97;;;2.53;;
5890;SDS011;2971;52.420;7.080;2023-04-03T02:13:18;4.70;;;2.60;;
5890;SDS011;2971;52.420;7.080;2023-04-03T02:15:44;7.07;;;2.73;;
5890;SDS011;2971;52.420;7.080;2023-04-03T02:18:10;5.70;;;2.23;;
5890;SDS011;2971;52.420;7.080;2023-04-03T02:20:36;5.83;;;2.90;;
5890;SDS011;2971;52.420;7.080;2023-04-03T02:23:01;6.30;;;2.77;;
5890;SDS011;2971;52.420;7.080;2023-04-03T02:25:27;6.20;;;2.70;;
5890;SDS011;2971;52.420;7.080;2023-04-03T02:27:52;6.67;;;2.30;;
5890;SDS011;2971;52.420;7.080;2023-04-03T02:30:18;6.03;;;2.77;;
5890;SDS011;2971;52.420;7.080;2023-04-03T02:32:43;10.60;;;2.83;;
5890;SDS011;2971;52.420;7.080;2023-04-03T02:35:10;6.20;;;2.63;;
5890;SDS011;2971;52.420;7.080;2023-04-03T02:37:36;6.03;;;3.13;;
5890;SDS011;2971;52.420;7.080;2023-04-03T02:40:01;6.37;;;3.00;;
5890;SDS011;2971;52.420;7.080;2023-04-03T02:42:28;5.13;;;2.57;;
5890;SDS011;2971;52.420;7.080;2023-04-03T02:44:54;6.60;;;3.20;;
5890;SDS011;2971;52.420;7.080;2023-04-03T02:47:20;5.37;;;2.83;;
5890;SDS011;2971;52.420;7.080;2023-04-03T02:49:45;7.83;;;2.70;;
5890;SDS011;2971;52.420;7.080;2023-04-03T02:52:12;8.40;;;3.27;;
5890;SDS011;2971;52.420;7.080;2023-04-03T02:54:37;8.07;;;2.87;;
5890;SDS011;2971;52.420;7.080;2023-04-03T02:57:03;5.10;;;2.67;;
5890;SDS011;2971;52.420;7.080;2023-04-03T02:59:28;6.30;;;2.70;;
5890;SDS011;2971;52.420;7.080;2023-04-03T03:01:54;9.40;;;3.20;;
5890;SDS011;2971;52.420;7.080;2023-04-03T03:04:20;5.13;;;2.83;;
5890;SDS011;2971;52.420;7.080;2023-04-03T03:06:46;6.93;;;2.77;;
5890;SDS011;2971;52.420;7.080;2023-04-03T03:09:11;7.23;;;2.60;;
5890;SDS011;2971;52.420;7.080;2023-04-03T03:11:38;6.23;;;2.50;;
5890;SDS011;2971;52.420;7.080;2023-04-03T03:14:03;7.23;;;2.80;;
5890;SDS011;2971;52.420;7.080;2023-04-03T03:16:29;6.97;;;2.80;;
5890;SDS011;2971;52.420;7.080;2023-04-03T03:18:55;6.37;;;2.73;;
5890;SDS011;2971;52.420;7.080;2023-04-03T03:21:20;5.37;;;2.80;;
5890;SDS011;2971;52.420;7.080;2023-04-03T03:23:46;6.23;;;2.80;;
5890;SDS011;2971;52.420;7.080;2023-04-03T03:26:11;7.30;;;3.00;;
5890;SDS011;2971;52.420;7.080;2023-04-03T03:28:37;7.80;;;2.93;;
5890;SDS011;2971;52.420;7.080;2023-04-03T03:31:03;7.23;;;2.83;;
5890;SDS011;2971;52.420;7.080;2023-04-03T03:33:29;6.40;;;2.73;;
5890;SDS011;2971;52.420;7.080;2023-04-03T03:35:55;6.93;;;2.87;;
5890;SDS011;2971;52.420;7.080;2023-04-03T03:38:20;8.00;;;2.70;;
5890;SDS011;2971;52.420;7.080;2023-04-03T03:40:49;6.97;;;2.80;;
5890;SDS011;2971;52.420;7.080;2023-04-03T03:43:15;12.37;;;3.23;;
5890;SDS011;2971;52.420;7.080;2023-04-03T03:45:40;8.00;;;3.27;;
5890;SDS011;2971;52.420;7.080;2023-04-03T03:48:06;6.77;;;3.17;;
5890;SDS011;2971;52.420;7.080;2023-04-03T03:50:32;8.83;;;3.33;;
5890;SDS011;2971;52.420;7.080;2023-04-03T03:52:58;7.10;;;2.60;;
5890;SDS011;2971;52.420;7.080;2023-04-03T03:55:23;10.50;;;2.90;;
5890;SDS011;2971;52.420;7.080;2023-04-03T03:57:48;6.10;;;2.30;;
5890;SDS011;2971;52.420;7.080;2023-04-03T04:00:14;5.83;;;2.57;;
5890;SDS011;2971;52.420;7.080;2023-04-03T04:02:40;5.80;;;2.73;;
5890;SDS011;2971;52.420;7.080;2023-04-03T04:05:05;6.23;;;2.77;;
5890;SDS011;2971;52.420;7.080;2023-04-03T04:07:31;7.90;;;2.90;;
5890;SDS011;2971;52.420;7.080;2023-04-03T04:09:56;8.77;;;2.93;;
5890;SDS011;2971;52.420;7.080;2023-04-03T04:12:22;5.80;;;2.83;;
5890;SDS011;2971;52.420;7.080;2023-04-03T04:14:47;6.67;;;2.63;;
5890;SDS011;2971;52.420;7.080;2023-04-03T04:17:13;7.27;;;2.93;;
5890;SDS011;2971;52.420;7.080;2023-04-03T04:19:38;10.70;;;2.90;;
5890;SDS011;2971;52.420;7.080;2023-04-03T04:22:04;11.27;;;3.57;;
5890;SDS011;2971;52.420;7.080;2023-04-03T04:24:29;8.07;;;2.90;;
5890;SDS011;2971;52.420;7.080;2023-04-03T04:26:55;12.10;;;3.57;;
5890;SDS011;2971;52.420;7.080;2023-04-03T04:29:20;5.90;;;3.03;;
5890;SDS011;2971;52.420;7.080;2023-04-03T04:31:46;7.73;;;3.03;;
5890;SDS011;2971;52.420;7.080;2023-04-03T04:34:11;8.67;;;3.23;;
5890;SDS011;2971;52.420;7.080;2023-04-03T04:36:38;7.20;;;2.83;;
5890;SDS011;2971;52.420;7.080;2023-04-03T04:39:03;7.20;;;2.87;;
5890;SDS011;2971;52.420;7.080;2023-04-03T04:41:29;8.33;;;3.30;;
5890;SDS011;2971;52.420;7.080;2023-04-03T04:43:54;5.17;;;2.87;;
5890;SDS011;2971;52.420;7.080;2023-04-03T04:46:20;8.83;;;2.80;;
5890;SDS011;2971;52.420;7.080;2023-04-03T04:48:46;6.10;;;3.00;;
5890;SDS011;2971;52.420;7.080;2023-04-03T04:51:13;9.70;;;3.37;;
5890;SDS011;2971;52.420;7.080;2023-04-03T04:53:39;8.03;;;3.63;;
5890;SDS011;2971;52.420;7.080;2023-04-03T04:56:05;6.90;;;3.20;;
5890;SDS011;2971;52.420;7.080;2023-04-03T04:58:31;7.10;;;3.00;;
5890;SDS011;2971;52.420;7.080;2023-04-03T05:01:00;8.13;;;3.43;;
5890;SDS011;2971;52.420;7.080;2023-04-03T05:03:26;7.63;;;3.03;;
5890;SDS011;2971;52.420;7.080;2023-04-03T05:05:52;6.97;;;3.30;;
5890;SDS011;2971;52.420;7.080;2023-04-03T05:08:17;9.60;;;3.30;;
5890;SDS011;2971;52.420;7.080;2023-04-03T05:10:44;7.60;;;2.80;;
5890;SDS011;2971;52.420;7.080;2023-04-03T05:13:10;7.63;;;2.67;;
5890;SDS011;2971;52.420;7.080;2023-04-03T05:15:35;7.57;;;3.27;;
5890;SDS011;2971;52.420;7.080;2023-04-03T05:18:01;11.13;;;2.87;;
5890;SDS011;2971;52.420;7.080;2023-04-03T05:20:26;6.87;;;2.90;;
5890;SDS011;2971;52.420;7.080;2023-04-03T05:22:51;10.90;;;2.73;;
5890;SDS011;2971;52.420;7.080;2023-04-03T05:25:17;11.03;;;2.90;;
5890;SDS011;2971;52.420;7.080;2023-04-03T05:27:42;5.83;;;2.50;;
5890;SDS011;2971;52.420;7.080;2023-04-03T05:30:08;8.60;;;3.47;;
5890;SDS011;2971;52.420;7.080;2023-04-03T05:32:33;5.10;;;2.80;;
5890;SDS011;2971;52.420;7.080;2023-04-03T05:34:59;6.43;;;2.93;;
5890;SDS011;2971;52.420;7.080;2023-04-03T05:37:24;6.67;;;2.70;;
5890;SDS011;2971;52.420;7.080;2023-04-03T05:39:50;8.70;;;2.90;;
5890;SDS011;2971;52.420;7.080;2023-04-03T05:42:16;6.90;;;2.57;;
5890;SDS011;2971;52.420;7.080;2023-04-03T05:44:42;5.67;;;2.40;;
5890;SDS011;2971;52.420;7.080;2023-04-03T05:47:08;10.57;;;3.47;;
5890;SDS011;2971;52.420;7.080;2023-04-03T05:49:33;6.27;;;2.73;;
5890;SDS011;2971;52.420;7.080;2023-04-03T05:51:58;7.97;;;3.60;;
5890;SDS011;2971;52.420;7.080;2023-04-03T05:54:25;8.27;;;5.03;;
5890;SDS011;2971;52.420;7.080;2023-04-03T05:56:52;10.93;;;5.40;;
5890;SDS011;2971;52.420;7.080;2023-04-03T05:59:18;9.60;;;3.30;;
5890;SDS011;2971;52.420;7.080;2023-04-03T06:01:44;8.27;;;3.10;;
5890;SDS011;2971;52.420;7.080;2023-04-03T06:04:09;9.20;;;3.27;;
5890;SDS011;2971;52.420;7.080;2023-04-03T06:06:56;6.90;;;3.27;;
5890;SDS011;2971;52.420;7.080;2023-04-03T06:09:23;8.97;;;3.10;;
5890;SDS011;2971;52.420;7.080;2023-04-03T06:11:50;8.07;;;3.00;;
5890;SDS011;2971;52.420;7.080;2023-04-03T06:14:16;10.27;;;2.90;;
5890;SDS011;2971;52.420;7.080;2023-04-03T06:16:42;8.03;;;2.67;;
5890;SDS011;2971;52.420;7.080;2023-04-03T06:19:08;7.50;;;2.60;;
5890;SDS011;2971;52.420;7.080;2023-04-03T06:21:34;6.83;;;3.17;;
5890;SDS011;2971;52.420;7.080;2023-04-03T06:24:00;7.07;;;2.70;;
5890;SDS011;2971;52.420;7.080;2023-04-03T06:26:27;8.40;;;2.50;;
5890;SDS011;2971;52.420;7.080;2023-04-03T06:28:52;6.70;;;2.20;;
5890;SDS011;2971;52.420;7.080;2023-04-03T06:31:18;7.30;;;2.90;;
5890;SDS011;2971;52.420;7.080;2023-04-03T06:33:43;8.33;;;2.70;;
5890;SDS011;2971;52.420;7.080;2023-04-03T06:36:09;5.80;;;2.90;;
5890;SDS011;2971;52.420;7.080;2023-04-03T06:38:35;5.90;;;2.43;;
5890;SDS011;2971;52.420;7.080;2023-04-03T06:41:00;5.20;;;2.50;;
5890;SDS011;2971;52.420;7.080;2023-04-03T06:43:26;5.77;;;2.33;;
5890;SDS011;2971;52.420;7.080;2023-04-03T06:45:51;8.57;;;2.50;;
5890;SDS011;2971;52.420;7.080;2023-04-03T06:48:17;5.63;;;2.10;;
5890;SDS011;2971;52.420;7.080;2023-04-03T06:50:42;7.73;;;2.60;;
5890;SDS011;2971;52.420;7.080;2023-04-03T06:53:08;4.83;;;2.10;;
5890;SDS011;2971;52.420;7.080;2023-04-03T06:55:34;4.67;;;2.30;;
5890;SDS011;2971;52.420;7.080;2023-04-03T06:58:00;6.60;;;2.63;;
5890;SDS011;2971;52.420;7.080;2023-04-03T07:00:26;7.50;;;2.37;;
5890;SDS011;2971;52.420;7.080;2023-04-03T07:02:52;4.67;;;2.40;;
5890;SDS011;2971;52.420;7.080;2023-04-03T07:05:18;5.27;;;2.10;;
5890;SDS011;2971;52.420;7.080;2023-04-03T07:07:43;6.37;;;2.47;;
5890;SDS011;2971;52.420;7.080;2023-04-03T07:10:09;6.33;;;2.40;;
5890;SDS011;2971;52.420;7.080;2023-04-03T07:12:35;5.00;;;2.30;;
5890;SDS011;2971;52.420;7.080;2023-04-03T07:15:00;4.30;;;2.30;;
5890;SDS011;2971;52.420;7.080;2023-04-03T07:17:26;5.60;;;2.73;;
5890;SDS011;2971;52.420;7.080;2023-04-03T07:19:51;6.63;;;2.37;;
5890;SDS011;2971;52.420;7.080;2023-04-03T07:22:17;7.40;;;2.50;;
5890;SDS011;2971;52.420;7.080;2023-04-03T07:24:42;7.23;;;2.30;;
5890;SDS011;2971;52.420;7.080;2023-04-03T07:27:08;5.57;;;2.53;;
5890;SDS011;2971;52.420;7.080;2023-04-03T07:29:35;4.50;;;1.80;;
5890;SDS011;2971;52.420;7.080;2023-04-03T07:32:00;3.27;;;1.83;;
5890;SDS011;2971;52.420;7.080;2023-04-03T07:34:26;5.83;;;2.03;;
5890;SDS011;2971;52.420;7.080;2023-04-03T07:36:52;3.43;;;1.87;;
5890;SDS011;2971;52.420;7.080;2023-04-03T07:39:17;6.43;;;2.30;;
5890;SDS011;2971;52.420;7.080;2023-04-03T07:41:43;6.27;;;2.30;;
5890;SDS011;2971;52.420;7.080;2023-04-03T07:44:08;6.83;;;3.13;;
5890;SDS011;2971;52.420;7.080;2023-04-03T07:46:35;4.13;;;2.57;;
5890;SDS011;2971;52.420;7.080;2023-04-03T07:49:00;9.03;;;2.43;;
5890;SDS011;2971;52.420;7.080;2023-04-03T07:51:26;7.60;;;2.00;;
5890;SDS011;2971;52.420;7.080;2023-04-03T07:53:53;5.07;;;2.10;;
5890;SDS011;2971;52.420;7.080;2023-04-03T07:56:18;7.40;;;2.00;;
5890;SDS011;2971;52.420;7.080;2023-04-03T07:58:43;5.83;;;2.10;;
5890;SDS011;2971;52.420;7.080;2023-04-03T08:01:09;6.77;;;2.10;;
5890;SDS011;2971;52.420;7.080;2023-04-03T08:03:34;5.53;;;1.90;;
5890;SDS011;2971;52.420;7.080;2023-04-03T08:06:02;4.03;;;2.10;;
5890;SDS011;2971;52.420;7.080;2023-04-03T08:08:29;11.10;;;3.40;;
5890;SDS011;2971;52.420;7.080;2023-04-03T08:10:55;4.93;;;1.90;;
5890;SDS011;2971;52.420;7.080;2023-04-03T08:13:23;3.33;;;1.90;;
5890;SDS011;2971;52.420;7.080;2023-04-03T08:15:48;3.03;;;1.67;;
5890;SDS011;2971;52.420;7.080;2023-04-03T08:18:14;5.90;;;2.13;;
5890;SDS011;2971;52.420;7.080;2023-04-03T08:20:41;5.10;;;1.90;;
5890;SDS011;2971;52.420;7.080;2023-04-03T08:23:07;3.90;;;1.83;;
5890;SDS011;2971;52.420;7.080;2023-04-03T08:25:33;2.87;;;1.70;;
5890;SDS011;2971;52.420;7.080;2023-04-03T08:28:02;2.77;;;1.47;;
5890;SDS011;2971;52.420;7.080;2023-04-03T08:30:27;3.53;;;1.60;;
5890;SDS011;2971;52.420;7.080;2023-04-03T08:32:53;4.77;;;1.83;;
5890;SDS011;2971;52.420;7.080;2023-04-03T08:35:18;3.77;;;1.73;;
5890;SDS011;2971;52.420;7.080;2023-04-03T08:37:45;4.80;;;1.73;;
5890;SDS011;2971;52.420;7.080;2023-04-03T08:40:12;1.47;;;1.30;;
5890;SDS011;2971;52.420;7.080;2023-04-03T08:42:46;4.37;;;1.50;;
5890;SDS011;2971;52.420;7.080;2023-04-03T08:45:42;3.00;;;1.70;;
5890;SDS011;2971;52.420;7.080;2023-04-03T08:48:15;6.13;;;1.70;;
5890;SDS011;2971;52.420;7.080;2023-04-03T08:50:43;4.23;;;1.57;;
5890;SDS011;2971;52.420;7.080;2023-04-03T08:53:14;1.97;;;1.40;;
5890;SDS011;2971;52.420;7.080;2023-04-03T08:55:45;2.67;;;1.43;;
5890;SDS011;2971;52.420;7.080;2023-04-03T08:58:12;2.67;;;1.50;;
5890;SDS011;2971;52.420;7.080;2023-04-03T09:00:48;4.03;;;1.60;;
5890;SDS011;2971;52.420;7.080;2023-04-03T09:03:17;3.87;;;1.70;;
5890;SDS011;2971;52.420;7.080;2023-04-03T09:06:00;3.23;;;1.63;;
5890;SDS011;2971;52.420;7.080;2023-04-03T09:08:37;2.70;;;1.50;;
5890;SDS011;2971;52.420;7.080;2023-04-03T09:11:20;3.13;;;1.63;;
5890;SDS011;2971;52.420;7.080;2023-04-03T09:13:59;2.30;;;1.27;;
5890;SDS011;2971;52.420;7.080;2023-04-03T09:19:08;2.57;;;1.40;;
5890;SDS011;2971;52.420;7.080;2023-04-03T09:21:38;2.87;;;1.50;;
5890;SDS011;2971;52.420;7.080;2023-04-03T09:24:07;2.33;;;1.60;;
5890;SDS011;2971;52.420;7.080;2023-04-03T09:29:06;2.63;;;1.70;;
5890;SDS011;2971;52.420;7.080;2023-04-03T09:31:37;3.53;;;1.57;;
5890;SDS011;2971;52.420;7.080;2023-04-03T09:34:08;1.77;;;1.30;;
5890;SDS011;2971;52.420;7.080;2023-04-03T09:36:43;3.13;;;1.60;;
5890;SDS011;2971;52.420;7.080;2023-04-03T09:39:16;2.63;;;1.83;;
5890;SDS011;2971;52.420;7.080;2023-04-03T09:41:44;3.27;;;1.67;;
5890;SDS011;2971;52.420;7.080;2023-04-03T09:44:25;2.37;;;1.40;;
5890;SDS011;2971;52.420;7.080;2023-04-03T09:46:52;3.90;;;2.07;;
5890;SDS011;2971;52.420;7.080;2023-04-03T09:49:18;3.30;;;1.90;;
5890;SDS011;2971;52.420;7.080;2023-04-03T09:51:44;2.57;;;1.40;;
5890;SDS011;2971;52.420;7.080;2023-04-03T09:54:52;3.60;;;1.90;;
5890;SDS011;2971;52.420;7.080;2023-04-03T09:57:02;3.37;;;1.60;;
5890;SDS011;2971;52.420;7.080;2023-04-03T09:59:31;4.13;;;1.73;;
5890;SDS011;2971;52.420;7.080;2023-04-03T10:02:43;3.90;;;1.73;;
5890;SDS011;2971;52.420;7.080;2023-04-03T10:04:48;3.13;;;1.60;;
5890;SDS011;2971;52.420;7.080;2023-04-03T10:10:18;4.17;;;1.80;;
5890;SDS011;2971;52.420;7.080;2023-04-03T10:12:45;2.80;;;1.50;;
5890;SDS011;2971;52.420;7.080;2023-04-03T10:15:14;2.60;;;1.50;;
5890;SDS011;2971;52.420;7.080;2023-04-03T10:20:26;2.80;;;1.73;;
5890;SDS011;2971;52.420;7.080;2023-04-03T10:33:39;2.87;;;1.70;;
5890;SDS011;2971;52.420;7.080;2023-04-03T10:38:53;2.27;;;1.60;;
5890;SDS011;2971;52.420;7.080;2023-04-03T10:41:34;3.00;;;1.83;;
5890;SDS011;2971;52.420;7.080;2023-04-03T10:47:02;3.93;;;1.87;;
5890;SDS011;2971;52.420;7.080;2023-04-03T10:52:42;2.40;;;1.53;;
5890;SDS011;2971;52.420;7.080;2023-04-03T10:57:38;4.73;;;1.93;;
5890;SDS011;2971;52.420;7.080;2023-04-03T11:00:06;2.33;;;1.60;;
5890;SDS011;2971;52.420;7.080;2023-04-03T11:02:41;5.50;;;1.90;;
5890;SDS011;2971;52.420;7.080;2023-04-03T11:10:51;3.93;;;2.37;;
5890;SDS011;2971;52.420;7.080;2023-04-03T11:13:38;2.80;;;1.90;;
5890;SDS011;2971;52.420;7.080;2023-04-03T11:16:08;3.03;;;1.80;;
5890;SDS011;2971;52.420;7.080;2023-04-03T11:23:42;3.47;;;2.00;;
5890;SDS011;2971;52.420;7.080;2023-04-03T11:26:16;2.90;;;1.90;;
5890;SDS011;2971;52.420;7.080;2023-04-03T11:28:43;3.90;;;2.17;;
5890;SDS011;2971;52.420;7.080;2023-04-03T11:36:41;3.27;;;1.90;;
5890;SDS011;2971;52.420;7.080;2023-04-03T11:48:06;4.03;;;1.83;;
5890;SDS011;2971;52.420;7.080;2023-04-03T11:50:54;3.13;;;2.03;;
5890;SDS011;2971;52.420;7.080;2023-04-03T11:53:35;4.30;;;2.00;;
5890;SDS011;2971;52.420;7.080;2023-04-03T12:01:46;4.13;;;2.07;;
5890;SDS011;2971;52.420;7.080;2023-04-03T12:04:12;2.83;;;1.67;;
5890;SDS011;2971;52.420;7.080;2023-04-03T12:09:54;3.37;;;1.77;;
5890;SDS011;2971;52.420;7.080;2023-04-03T12:11:56;3.20;;;1.70;;
5890;SDS011;2971;52.420;7.080;2023-04-03T12:14:22;3.07;;;1.80;;
5890;SDS011;2971;52.420;7.080;2023-04-03T12:16:50;3.47;;;1.80;;
5890;SDS011;2971;52.420;7.080;2023-04-03T12:19:32;3.80;;;1.97;;
5890;SDS011;2971;52.420;7.080;2023-04-03T12:24:28;3.97;;;1.97;;
5890;SDS011;2971;52.420;7.080;2023-04-03T12:27:03;2.83;;;1.80;;
5890;SDS011;2971;52.420;7.080;2023-04-03T12:40:25;5.00;;;2.10;;
5890;SDS011;2971;52.420;7.080;2023-04-03T12:51:22;2.43;;;1.70;;
5890;SDS011;2971;52.420;7.080;2023-04-03T12:53:54;4.70;;;1.77;;
5890;SDS011;2971;52.420;7.080;2023-04-03T12:56:28;3.60;;;1.60;;
5890;SDS011;2971;52.420;7.080;2023-04-03T12:58:55;1.67;;;1.27;;
5890;SDS011;2971;52.420;7.080;2023-04-03T13:01:37;3.53;;;1.77;;
5890;SDS011;2971;52.420;7.080;2023-04-03T13:04:03;2.63;;;1.40;;
5890;SDS011;2971;52.420;7.080;2023-04-03T13:06:42;3.30;;;1.60;;
5890;SDS011;2971;52.420;7.080;2023-04-03T13:12:13;2.73;;;1.40;;
5890;SDS011;2971;52.420;7.080;2023-04-03T13:14:40;3.97;;;1.60;;
5890;SDS011;2971;52.420;7.080;2023-04-03T13:17:16;3.57;;;1.63;;
5890;SDS011;2971;52.420;7.080;2023-04-03T13:19:42;2.97;;;1.60;;
5890;SDS011;2971;52.420;7.080;2023-04-03T13:22:33;3.47;;;1.87;;
5890;SDS011;2971;52.420;7.080;2023-04-03T13:25:08;1.90;;;1.40;;
5890;SDS011;2971;52.420;7.080;2023-04-03T13:27:35;2.47;;;1.50;;
5890;SDS011;2971;52.420;7.080;2023-04-03T13:30:01;3.83;;;1.50;;
5890;SDS011;2971;52.420;7.080;2023-04-03T13:32:28;2.37;;;1.50;;
5890;SDS011;2971;52.420;7.080;2023-04-03T13:34:55;3.13;;;1.73;;
5890;SDS011;2971;52.420;7.080;2023-04-03T13:40:02;2.43;;;1.40;;
5890;SDS011;2971;52.420;7.080;2023-04-03T13:42:32;4.23;;;1.63;;
5890;SDS011;2971;52.420;7.080;2023-04-03T13:47:41;2.30;;;1.30;;
5890;SDS011;2971;52.420;7.080;2023-04-03T13:52:43;3.33;;;1.70;;
5890;SDS011;2971;52.420;7.080;2023-04-03T13:57:56;2.67;;;1.53;;
5890;SDS011;2971;52.420;7.080;2023-04-03T14:00:38;2.60;;;1.60;;
5890;SDS011;2971;52.420;7.080;2023-04-03T14:03:40;3.20;;;1.70;;
5890;SDS011;2971;52.420;7.080;2023-04-03T14:06:04;2.93;;;1.60;;
5890;SDS011;2971;52.420;7.080;2023-04-03T14:08:31;4.10;;;1.67;;
5890;SDS011;2971;52.420;7.080;2023-04-03T14:10:56;3.67;;;1.33;;
5890;SDS011;2971;52.420;7.080;2023-04-03T14:13:22;3.10;;;1.53;;
5890;SDS011;2971;52.420;7.080;2023-04-03T14:15:47;3.77;;;1.60;;
5890;SDS011;2971;52.420;7.080;2023-04-03T14:18:15;1.97;;;1.40;;
5890;SDS011;2971;52.420;7.080;2023-04-03T14:20:46;5.30;;;1.53;;
5890;SDS011;2971;52.420;7.080;2023-04-03T14:23:12;4.33;;;1.60;;
5890;SDS011;2971;52.420;7.080;2023-04-03T14:25:38;2.50;;;1.47;;
5890;SDS011;2971;52.420;7.080;2023-04-03T14:28:13;2.73;;;1.47;;
5890;SDS011;2971;52.420;7.080;2023-04-03T14:30:40;4.47;;;1.90;;
5890;SDS011;2971;52.420;7.080;2023-04-03T14:33:06;2.47;;;1.47;;
5890;SDS011;2971;52.420;7.080;2023-04-03T14:35:31;3.23;;;1.50;;
5890;SDS011;2971;52.420;7.080;2023-04-03T14:37:57;2.63;;;1.40;;
5890;SDS011;2971;52.420;7.080;2023-04-03T14:40:24;4.60;;;2.00;;
5890;SDS011;2971;52.420;7.080;2023-04-03T14:42:51;2.80;;;1.60;;
5890;SDS011;2971;52.420;7.080;2023-04-03T14:45:20;2.47;;;1.33;;
5890;SDS011;2971;52.420;7.080;2023-04-03T14:47:47;1.73;;;1.43;;
5890;SDS011;2971;52.420;7.080;2023-04-03T14:50:16;2.77;;;1.50;;
5890;SDS011;2971;52.420;7.080;2023-04-03T14:52:46;4.80;;;1.73;;
5890;SDS011;2971;52.420;7.080;2023-04-03T14:55:13;2.50;;;1.53;;
5890;SDS011;2971;52.420;7.080;2023-04-03T14:57:40;5.30;;;1.70;;
5890;SDS011;2971;52.420;7.080;2023-04-03T15:00:07;4.10;;;1.60;;
5890;SDS011;2971;52.420;7.080;2023-04-03T15:02:37;5.50;;;1.50;;
5890;SDS011;2971;52.420;7.080;2023-04-03T15:05:04;2.00;;;1.20;;
5890;SDS011;2971;52.420;7.080;2023-04-03T15:07:41;5.20;;;2.03;;
5890;SDS011;2971;52.420;7.080;2023-04-03T15:10:18;3.60;;;1.50;;
5890;SDS011;2971;52.420;7.080;2023-04-03T15:12:45;3.00;;;1.53;;
5890;SDS011;2971;52.420;7.080;2023-04-03T15:15:11;2.90;;;1.67;;
5890;SDS011;2971;52.420;7.080;2023-04-03T15:17:37;3.43;;;1.50;;
5890;SDS011;2971;52.420;7.080;2023-04-03T15:20:03;4.17;;;1.50;;
5890;SDS011;2971;52.420;7.080;2023-04-03T15:22:36;3.30;;;1.50;;
5890;SDS011;2971;52.420;7.080;2023-04-03T15:25:01;2.93;;;1.40;;
5890;SDS011;2971;52.420;7.080;2023-04-03T15:27:27;2.43;;;1.50;;
5890;SDS011;2971;52.420;7.080;2023-04-03T15:29:53;4.37;;;1.87;;
5890;SDS011;2971;52.420;7.080;2023-04-03T15:32:18;2.73;;;1.50;;
5890;SDS011;2971;52.420;7.080;2023-04-03T15:34:44;2.33;;;1.50;;
5890;SDS011;2971;52.420;7.080;2023-04-03T15:37:09;2.53;;;1.57;;
5890;SDS011;2971;52.420;7.080;2023-04-03T15:39:34;4.23;;;1.53;;
5890;SDS011;2971;52.420;7.080;2023-04-03T15:42:00;2.93;;;1.40;;
5890;SDS011;2971;52.420;7.080;2023-04-03T15:44:30;2.87;;;1.80;;
5890;SDS011;2971;52.420;7.080;2023-04-03T15:46:57;2.93;;;1.63;;
5890;SDS011;2971;52.420;7.080;2023-04-03T15:49:23;2.77;;;1.57;;
5890;SDS011;2971;52.420;7.080;2023-04-03T15:51:48;2.47;;;1.47;;
5890;SDS011;2971;52.420;7.080;2023-04-03T15:54:15;5.37;;;1.97;;
5890;SDS011;2971;52.420;7.080;2023-04-03T15:56:41;2.67;;;1.40;;
5890;SDS011;2971;52.420;7.080;2023-04-03T15:59:06;2.67;;;1.60;;
5890;SDS011;2971;52.420;7.080;2023-04-03T16:01:32;2.40;;;1.50;;
5890;SDS011;2971;52.420;7.080;2023-04-03T16:03:57;3.70;;;1.60;;
5890;SDS011;2971;52.420;7.080;2023-04-03T16:06:22;5.10;;;1.90;;
5890;SDS011;2971;52.420;7.080;2023-04-03T16:08:49;3.17;;;1.60;;
5890;SDS011;2971;52.420;7.080;2023-04-03T16:11:15;2.77;;;1.50;;
5890;SDS011;2971;52.420;7.080;2023-04-03T16:13:40;4.47;;;1.60;;
5890;SDS011;2971;52.420;7.080;2023-04-03T16:16:07;3.43;;;1.80;;
5890;SDS011;2971;52.420;7.080;2023-04-03T16:18:33;3.17;;;1.50;;
5890;SDS011;2971;52.420;7.080;2023-04-03T16:20:59;2.33;;;1.70;;
5890;SDS011;2971;52.420;7.080;2023-04-03T16:23:24;2.40;;;1.80;;
5890;SDS011;2971;52.420;7.080;2023-04-03T16:25:50;1.67;;;1.50;;
5890;SDS011;2971;52.420;7.080;2023-04-03T16:28:16;3.60;;;1.73;;
5890;SDS011;2971;52.420;7.080;2023-04-03T16:30:43;2.67;;;1.60;;
5890;SDS011;2971;52.420;7.080;2023-04-03T16:33:09;4.00;;;1.60;;
5890;SDS011;2971;52.420;7.080;2023-04-03T16:35:35;2.73;;;1.57;;
5890;SDS011;2971;52.420;7.080;2023-04-03T16:38:01;3.23;;;1.80;;
5890;SDS011;2971;52.420;7.080;2023-04-03T16:40:26;3.03;;;1.80;;
5890;SDS011;2971;52.420;7.080;2023-04-03T16:42:52;4.47;;;1.77;;
5890;SDS011;2971;52.420;7.080;2023-04-03T16:45:17;2.47;;;1.70;;
5890;SDS011;2971;52.420;7.080;2023-04-03T16:47:43;2.40;;;1.60;;
5890;SDS011;2971;52.420;7.080;2023-04-03T16:50:08;2.10;;;1.80;;
5890;SDS011;2971;52.420;7.080;2023-04-03T16:52:34;4.20;;;2.10;;
5890;SDS011;2971;52.420;7.080;2023-04-03T16:54:59;2.57;;;1.60;;
5890;SDS011;2971;52.420;7.080;2023-04-03T16:57:26;2.67;;;2.00;;
5890;SDS011;2971;52.420;7.080;2023-04-03T16:59:52;7.50;;;2.00;;
5890;SDS011;2971;52.420;7.080;2023-04-03T17:02:18;4.10;;;2.20;;
5890;SDS011;2971;52.420;7.080;2023-04-03T17:04:44;7.27;;;4.03;;
5890;SDS011;2971;52.420;7.080;2023-04-03T17:07:09;6.90;;;3.97;;
5890;SDS011;2971;52.420;7.080;2023-04-03T17:09:34;6.00;;;3.90;;